Historyczne dane pomiarowe

Dodano dane terminowe – wersja testowa.

Dane z okresu 1951-2019

Wersja bazy: 1.34 [2019-03-16, lista zmian], aktualizacja planowana na 2019-04-15

Dane meteo z obszaru Polski uzyskane na podstawie danych udostępnionych przez Instytut Meteorologii i Gospodarki Wodnej – Państwowy Instytut Badawczy.

 

Wybierz Datę:    

       

TemperaturaWilgotnośćWiatrCiśnienieOpadyŚniegCzas trwania zjawisk
 Stacja t tx tn tng RH VA  wxwx mslp ppp RRR   cm mm wxwxwxwxwxwxwx
1987-08-14 15.6 19.4 13.0- 91.0- 8.0 1.3---- 7.0------------
1987-08-13 14.2 18.6 8.3- 76.3- 1.3 4.0---- 2.3------------
1987-08-12 12.8 16.4 7.6- 81.3- 4.3 4.0---- 0.0------------
1987-08-11 13.3 16.5 10.2- 81.8- 4.7 6.0---- 0.0------------
1987-08-10 12.9 15.2 10.2- 94.5- 7.3 2.0---- 7.0------------
1987-08-09 13.7 16.6 9.0- 87.8- 7.7 2.7---- 2.0------------
1987-08-08 14.0 18.0 9.7- 74.3- 5.3 5.0---- 0.0------------
1987-08-07 12.7 17.4 6.0- 74.5- 4.3 3.7---- 0.0------------
1987-08-06 12.7 15.2 11.1- 81.8- 7.3 5.0---- 0.3------------
1987-08-05 12.4 15.8 9.7- 88.8- 7.3 5.0---- 4.5------------
1987-08-04 12.2 16.4 10.1- 89.3- 7.0 4.0---- 2.2------------
1987-08-03 13.0 16.5 9.0- 87.3- 5.3 4.7---- 2.5------------
1987-08-02 13.4 18.0 10.0- 82.0- 5.3 6.0---- 5.6------------
1987-08-01 16.2 19.4 14.3- 77.5- 7.0 6.0---- 0.0------------
1987-07-31 14.7 18.0 11.9- 88.0- 7.7 3.7---- 1.9------------
1987-07-30 16.2 20.7 12.2- 87.5- 7.7 3.7---- 6.5------------
1987-07-29 13.3 17.5 10.0- 84.8- 7.7 2.0---- 0.0------------
1987-07-28 13.3 18.2 11.0- 87.8- 8.0 6.0---- 0.2------------
1987-07-27 12.0 16.5 9.2- 90.3- 7.7 3.7---- 2.7------------
1987-07-26 12.8 16.8 8.9- 81.5- 5.7 7.0---- 1.0------------
1987-07-25 15.4 19.0 12.0- 76.0- 6.0 5.0---- 0.3------------
1987-07-24 18.4 22.0 13.9- 81.8- 4.0 3.7---- 1.0------------
1987-07-23 17.3 20.0 13.5- 89.5- 8.0 1.3---- 0.2------------
1987-07-22 17.9 20.0 16.1- 88.8- 4.0 4.0---- 0.8------------
1987-07-21 18.3 20.6 15.4- 86.5- 7.7 2.7---- 3.5------------
1987-07-20 18.3 23.2 15.6- 83.0- 2.7 3.0---- 0.4------------
1987-07-19 17.4 19.8 13.9- 88.0- 4.3 3.7---- 9.0------------
1987-07-18 18.2 24.2 16.5- 94.0- 8.0 3.7---- 38.5------------
1987-07-17 22.0 26.3 17.8- 64.0- 8.0 7.7---- 6.6------------
1987-07-16 20.3 24.4 14.5- 66.3- 4.3 7.0---- 0.0------------
1987-07-15 18.8 23.5 13.1- 66.5- 5.0 5.0---- 2.6------------
1987-07-14 15.6 19.5 9.7- 78.3- 1.0 4.3---- 0.0------------
1987-07-13 14.9 18.4 12.3- 75.8- 6.7 6.0---- 0.0------------
1987-07-12 17.0 19.6 15.2- 86.8- 5.3 5.3---- 14.7------------
1987-07-11 14.9 18.4 11.5- 91.3- 8.0 2.0---- 23.5------------
1987-07-10 14.1 17.5 9.0- 71.8- 6.0 6.7---- 0.8------------
1987-07-09 16.9 21.4 12.4- 67.5- 4.7 6.0---- 0.0------------
1987-07-08 19.7 25.8 15.3- 79.5- 8.0 4.0---- 0.0------------
1987-07-07 21.4 28.0 11.3- 62.0- 0.3 3.7---- 0.0------------
1987-07-06 18.1 25.0 8.0- 73.0- 0.3 4.3---- 0.0------------
1987-07-05 18.5 20.8 15.6- 67.3- 0.3 4.3---- 0.0------------
1987-07-04 17.1 19.4 15.5- 71.3- 5.0 6.3---- 0.0------------
1987-07-03 17.0 20.6 8.5- 62.8- 2.3 3.0---- 0.0------------
1987-07-02 16.7 19.4 13.3- 71.0- 2.0 5.3---- 0.0------------
1987-07-01 19.2 28.2 17.6- 88.3- 5.7 5.0---- 0.0------------
1987-06-30 25.6 31.5 20.3- 74.8- 3.7 3.3---- 0.0------------
1987-06-29 20.2 25.5 14.2- 84.3- 7.7 2.0---- 0.0------------
1987-06-28 15.4 18.0 12.1- 79.5- 4.3 3.7---- 0.3------------
1987-06-27 14.9 18.2 10.2- 74.3- 5.7 2.7---- 1.2------------
1987-06-26 15.2 20.2 9.0- 76.0- 7.3 5.3---- 0.0------------
1987-06-25 12.1 14.8 8.2- 79.0- 5.0 3.3---- 0.0------------
1987-06-24 13.2 15.6 10.7- 78.8- 7.7 4.7---- 0.0------------
1987-06-23 14.3 16.8 10.7- 81.8- 5.7 3.3---- 3.9------------
1987-06-22 12.9 15.6 11.2- 79.8- 7.3 3.7---- 0.0------------
1987-06-21 15.5 18.4 12.6- 84.5- 7.0 4.3---- 1.8------------
1987-06-20 16.3 21.8 12.2- 64.8- 7.0 2.7---- 0.0------------
1987-06-19 12.4 16.0 9.2- 74.5- 5.3 4.0---- 0.0------------
1987-06-18 10.1 13.9 6.7- 84.5- 7.3 5.3---- 3.3------------
1987-06-17 11.3 15.5 8.4- 76.3- 7.3 5.3---- 0.7------------
1987-06-16 11.2 13.5 9.8- 92.0- 8.0 5.7---- 4.1------------
449.9 ms

 

Źródłem pochodzenia danych jest Instytut Meteorologii i Gospodarki Wodnej – Państwowy Instytut Badawczy. Dane Instytutu Meteorologii i Gospodarki Wodnej – Państwowego Instytutu Badawczego zostały przetworzone.

Dane źródłowe można odnaleźć na stronie https://dane.imgw.pl